createdAt,value
2022-09-30T00:01:39.943Z,2.13
2022-09-30T00:04:14.694Z,2.72
2022-09-30T00:06:42.988Z,3.17
2022-09-30T00:09:13.134Z,2.50
2022-09-30T00:11:42.333Z,2.50
2022-09-30T00:14:16.095Z,2.30
2022-09-30T00:16:45.005Z,2.20
2022-09-30T00:19:14.873Z,2.63
2022-09-30T00:21:43.609Z,2.42
2022-09-30T00:24:11.729Z,2.38
2022-09-30T00:26:39.961Z,2.63
2022-09-30T00:29:08.030Z,2.05
2022-09-30T00:31:36.561Z,1.63
2022-09-30T00:34:08.540Z,1.63
2022-09-30T00:36:43.755Z,1.80
2022-09-30T00:39:14.889Z,2.55
2022-09-30T00:41:43.597Z,1.80
2022-09-30T00:44:47.053Z,1.95
2022-09-30T00:47:47.385Z,2.17
2022-09-30T00:50:29.085Z,2.25
2022-09-30T00:55:39.294Z,1.58
2022-09-30T00:58:10.500Z,2.00
2022-09-30T01:00:38.781Z,1.13
2022-09-30T01:03:08.041Z,1.90
2022-09-30T01:05:37.880Z,1.58
2022-09-30T01:08:10.167Z,1.50
2022-09-30T01:10:38.863Z,1.90
2022-09-30T01:13:07.700Z,1.63
2022-09-30T01:15:49.757Z,1.42
2022-09-30T01:18:27.422Z,1.55
2022-09-30T01:21:34.977Z,1.98
2022-09-30T01:24:41.665Z,1.63
2022-09-30T01:27:48.806Z,1.63
2022-09-30T01:30:21.798Z,1.75
2022-09-30T01:33:20.966Z,1.40
2022-09-30T01:36:07.383Z,1.60
2022-09-30T01:38:46.800Z,1.50
2022-09-30T01:41:26.486Z,1.38
2022-09-30T01:44:03.224Z,1.33
2022-09-30T01:46:37.896Z,1.40
2022-09-30T01:49:17.193Z,1.05
2022-09-30T01:51:53.683Z,1.38
2022-09-30T01:54:28.322Z,1.02
2022-09-30T01:57:04.425Z,0.98
2022-09-30T01:59:37.573Z,1.00
2022-09-30T02:02:12.120Z,1.65
2022-09-30T02:04:46.511Z,1.05
2022-09-30T02:07:25.176Z,1.10
2022-09-30T02:09:58.751Z,0.80
2022-09-30T02:12:31.390Z,1.23
2022-09-30T02:15:04.051Z,1.10
2022-09-30T02:17:36.876Z,1.20
2022-09-30T02:20:11.825Z,1.08
2022-09-30T02:22:44.716Z,1.50
2022-09-30T02:25:20.561Z,1.08
2022-09-30T02:27:55.321Z,0.73
2022-09-30T02:30:23.980Z,0.90
2022-09-30T02:32:58.242Z,0.85
2022-09-30T02:35:33.331Z,1.00
2022-09-30T02:38:06.032Z,0.80
2022-09-30T02:40:42.690Z,1.08
2022-09-30T02:43:11.646Z,0.85
2022-09-30T02:45:47.650Z,0.73
2022-09-30T02:48:27.720Z,0.85
2022-09-30T02:51:04.752Z,0.75
2022-09-30T02:53:37.753Z,0.73
2022-09-30T02:56:20.880Z,0.80
2022-09-30T02:58:51.262Z,0.70
2022-09-30T03:01:19.477Z,0.75
2022-09-30T03:03:51.454Z,0.70
2022-09-30T03:06:21.654Z,0.63
2022-09-30T03:08:49.926Z,0.60
2022-09-30T03:11:20.672Z,0.47
2022-09-30T03:14:19.178Z,1.05
2022-09-30T03:17:05.174Z,0.60
2022-09-30T03:19:51.057Z,0.70
2022-09-30T03:22:37.799Z,0.52
2022-09-30T03:25:20.779Z,0.70
2022-09-30T03:28:09.869Z,0.70
2022-09-30T03:30:48.430Z,0.40
2022-09-30T03:33:24.259Z,0.50
2022-09-30T03:36:00.898Z,0.40
2022-09-30T03:38:40.812Z,0.47
2022-09-30T03:41:15.788Z,0.40
2022-09-30T03:43:50.362Z,0.65
2022-09-30T03:46:26.001Z,0.47
2022-09-30T03:48:57.630Z,0.35
2022-09-30T03:51:26.192Z,0.50
2022-09-30T03:53:56.376Z,0.85
2022-09-30T03:56:28.464Z,0.35
2022-09-30T03:58:57.537Z,0.57
2022-09-30T04:01:25.971Z,0.40
2022-09-30T04:03:55.675Z,0.63
2022-09-30T04:06:26.196Z,0.60
2022-09-30T04:08:55.756Z,0.38
2022-09-30T04:11:23.799Z,0.60
2022-09-30T04:13:51.993Z,0.35
2022-09-30T04:16:20.395Z,0.50
2022-09-30T04:18:48.517Z,0.43
2022-09-30T04:21:17.302Z,0.40
2022-09-30T04:23:45.829Z,0.60
2022-09-30T04:26:17.286Z,0.73
2022-09-30T04:31:17.826Z,0.57
2022-09-30T04:33:46.214Z,0.80
2022-09-30T04:36:14.424Z,0.60
2022-09-30T04:38:42.560Z,0.45
2022-09-30T04:41:16.305Z,0.70
2022-09-30T04:43:47.192Z,0.82
2022-09-30T04:46:15.834Z,0.70
2022-09-30T04:48:45.960Z,0.50
2022-09-30T04:51:14.293Z,0.80
2022-09-30T04:53:42.703Z,0.57
2022-09-30T04:56:11.672Z,0.82
2022-09-30T04:58:39.850Z,0.88
2022-09-30T05:01:11.624Z,0.50
2022-09-30T05:03:40.379Z,0.60
2022-09-30T05:06:08.840Z,0.70
2022-09-30T05:08:38.832Z,0.68
2022-09-30T05:11:14.695Z,0.68
2022-09-30T05:13:42.838Z,0.90
2022-09-30T05:16:13.383Z,0.70
2022-09-30T05:18:45.884Z,0.77
2022-09-30T05:21:15.879Z,0.70
2022-09-30T05:23:44.007Z,1.20
2022-09-30T05:26:12.997Z,0.88
2022-09-30T05:28:41.427Z,0.60
2022-09-30T05:31:09.783Z,0.60
2022-09-30T05:33:39.443Z,0.50
2022-09-30T05:36:10.055Z,0.70
2022-09-30T05:38:38.156Z,0.73
2022-09-30T05:41:11.564Z,0.60
2022-09-30T05:43:40.804Z,0.70
2022-09-30T05:46:09.485Z,0.80
2022-09-30T05:48:39.447Z,0.55
2022-09-30T05:51:08.139Z,0.63
2022-09-30T05:53:38.779Z,0.68
2022-09-30T05:56:08.212Z,0.77
2022-09-30T05:58:37.840Z,0.63
2022-09-30T06:01:13.133Z,0.90
2022-09-30T06:03:43.954Z,0.52
2022-09-30T06:06:13.054Z,0.65
2022-09-30T06:08:41.764Z,0.85
2022-09-30T06:11:13.139Z,0.57
2022-09-30T06:13:41.964Z,0.80
2022-09-30T06:16:11.909Z,1.00
2022-09-30T06:18:41.719Z,2.08
2022-09-30T06:21:13.424Z,1.02
2022-09-30T06:23:41.951Z,1.20
2022-09-30T06:26:13.510Z,1.30
2022-09-30T06:31:10.282Z,1.35
2022-09-30T06:33:38.883Z,1.33
2022-09-30T06:36:07.359Z,1.52
2022-09-30T06:38:40.149Z,1.40
2022-09-30T06:41:09.838Z,1.20
2022-09-30T06:43:38.211Z,0.93
2022-09-30T06:46:15.405Z,0.80
2022-09-30T06:48:45.906Z,1.05
2022-09-30T06:51:14.143Z,1.30
2022-09-30T06:53:43.550Z,1.02
2022-09-30T06:56:11.723Z,0.80
2022-09-30T06:58:41.513Z,1.05
2022-09-30T07:01:09.719Z,0.80
2022-09-30T07:03:37.948Z,0.93
2022-09-30T07:06:07.574Z,1.00
2022-09-30T07:08:37.456Z,0.70
2022-09-30T07:11:12.024Z,0.80
2022-09-30T07:13:40.534Z,0.75
2022-09-30T07:16:08.716Z,0.90
2022-09-30T07:18:37.137Z,1.10
2022-09-30T07:21:06.218Z,0.80
2022-09-30T07:23:34.312Z,1.02
2022-09-30T07:26:05.948Z,0.55
2022-09-30T07:28:39.524Z,0.40
2022-09-30T07:31:32.040Z,0.40
2022-09-30T07:34:00.086Z,0.52
2022-09-30T07:36:33.085Z,0.80
2022-09-30T07:39:03.369Z,0.40
2022-09-30T07:41:31.576Z,0.30
2022-09-30T07:44:02.813Z,0.30
2022-09-30T07:46:32.981Z,0.52
2022-09-30T07:49:02.421Z,0.30
2022-09-30T07:51:33.005Z,0.95
2022-09-30T07:54:03.162Z,0.70
2022-09-30T07:56:45.585Z,0.50
2022-09-30T07:59:22.349Z,0.50
2022-09-30T08:01:51.447Z,0.80
2022-09-30T08:04:21.152Z,0.65
2022-09-30T08:06:51.116Z,0.35
2022-09-30T08:09:22.566Z,0.82
2022-09-30T08:11:51.406Z,0.90
2022-09-30T08:14:23.140Z,0.80
2022-09-30T08:16:51.950Z,0.70
2022-09-30T08:19:22.315Z,0.82
2022-09-30T08:21:53.348Z,0.60
2022-09-30T08:24:22.296Z,0.40
2022-09-30T08:26:50.928Z,0.45
2022-09-30T08:29:35.672Z,0.50
2022-09-30T08:32:08.822Z,0.40
2022-09-30T08:34:37.160Z,0.40
2022-09-30T08:37:09.269Z,0.40
2022-09-30T08:39:37.860Z,0.43
2022-09-30T08:45:21.369Z,0.40
2022-09-30T08:47:58.219Z,0.20
2022-09-30T08:50:35.845Z,0.35
2022-09-30T08:53:10.614Z,0.38
2022-09-30T08:55:42.880Z,0.30
2022-09-30T08:58:22.743Z,0.70
2022-09-30T09:00:56.831Z,0.20
2022-09-30T09:03:31.096Z,0.20
2022-09-30T09:06:10.114Z,0.30
2022-09-30T09:08:56.928Z,0.13
2022-09-30T09:11:42.801Z,0.20
2022-09-30T09:14:28.561Z,0.20
2022-09-30T09:17:15.401Z,0.20
2022-09-30T09:19:47.772Z,0.22
2022-09-30T09:22:16.911Z,0.13
2022-09-30T09:24:51.317Z,0.20
2022-09-30T09:27:24.946Z,0.17
2022-09-30T09:30:05.828Z,0.30
2022-09-30T09:32:36.661Z,0.25
2022-09-30T09:35:15.303Z,0.28
2022-09-30T09:38:10.595Z,0.40
2022-09-30T09:40:57.579Z,0.25
2022-09-30T09:43:36.257Z,0.22
2022-09-30T09:46:13.586Z,0.50
2022-09-30T09:48:44.948Z,0.28
2022-09-30T09:51:25.314Z,0.38
2022-09-30T09:53:58.301Z,0.40
2022-09-30T09:56:32.543Z,0.20
2022-09-30T09:59:16.047Z,0.82
2022-09-30T10:01:50.351Z,0.40
2022-09-30T10:04:24.729Z,0.45
2022-09-30T10:06:55.964Z,0.22
2022-09-30T10:09:27.432Z,0.30
2022-09-30T10:12:28.129Z,0.43
2022-09-30T10:15:16.822Z,0.30
2022-09-30T10:17:50.963Z,0.30
2022-09-30T10:20:28.026Z,0.75
2022-09-30T10:23:04.333Z,0.57
2022-09-30T10:25:32.751Z,0.10
2022-09-30T10:28:02.708Z,0.45
2022-09-30T10:30:43.116Z,0.30
2022-09-30T10:33:23.115Z,0.20
2022-09-30T10:36:08.560Z,0.30
2022-09-30T10:41:11.605Z,0.20
2022-09-30T10:43:44.524Z,0.32
2022-09-30T10:46:25.980Z,0.30
2022-09-30T10:48:56.271Z,0.30
2022-09-30T10:51:34.072Z,0.20
2022-09-30T10:54:02.473Z,0.20
2022-09-30T10:56:43.383Z,0.40
2022-09-30T10:59:34.378Z,0.20
2022-09-30T11:02:15.547Z,0.20
2022-09-30T11:04:49.990Z,0.20
2022-09-30T11:07:28.019Z,0.10
2022-09-30T11:10:01.909Z,0.20
2022-09-30T11:12:38.583Z,0.40
2022-09-30T11:15:17.199Z,0.20
2022-09-30T11:17:54.653Z,0.20
2022-09-30T11:20:27.794Z,0.30
2022-09-30T11:23:03.962Z,0.13
2022-09-30T11:25:42.029Z,0.10
2022-09-30T11:28:33.300Z,0.30
2022-09-30T11:31:11.384Z,0.17
2022-09-30T11:33:56.255Z,0.40
2022-09-30T11:36:33.000Z,0.30
2022-09-30T11:39:27.530Z,0.30
2022-09-30T11:42:03.943Z,0.40
2022-09-30T11:44:35.998Z,0.30
2022-09-30T11:47:28.928Z,0.20
2022-09-30T11:50:18.686Z,0.30
2022-09-30T11:52:57.158Z,0.20
2022-09-30T11:55:41.951Z,0.28
2022-09-30T11:58:39.256Z,0.82
2022-09-30T12:01:08.294Z,0.45
2022-09-30T12:03:41.473Z,0.40
2022-09-30T12:06:18.105Z,0.40
2022-09-30T12:08:51.668Z,0.22
2022-09-30T12:11:28.976Z,0.25
2022-09-30T12:14:02.125Z,0.35
2022-09-30T12:16:33.960Z,0.30
2022-09-30T12:19:14.830Z,0.43
2022-09-30T12:21:51.232Z,0.50
2022-09-30T12:24:26.796Z,0.50
2022-09-30T12:26:56.588Z,0.70
2022-09-30T12:29:48.079Z,0.70
2022-09-30T12:33:01.096Z,0.73
2022-09-30T12:35:43.632Z,1.10
2022-09-30T12:38:26.652Z,1.48
2022-09-30T12:41:11.949Z,1.30
2022-09-30T12:44:09.474Z,1.20
2022-09-30T12:46:57.249Z,1.80
2022-09-30T12:49:29.171Z,2.38
2022-09-30T12:51:59.682Z,1.98
2022-09-30T12:54:32.363Z,2.20
2022-09-30T12:57:04.337Z,2.28
2022-09-30T12:59:38.496Z,2.42
2022-09-30T13:02:09.972Z,2.78
2022-09-30T13:04:39.915Z,2.15
2022-09-30T13:07:23.158Z,3.28
2022-09-30T13:10:01.329Z,2.50
2022-09-30T13:12:41.995Z,3.20
2022-09-30T13:15:43.332Z,3.00
2022-09-30T13:18:48.534Z,2.83
2022-09-30T13:21:27.601Z,3.83
2022-09-30T13:23:56.966Z,3.10
2022-09-30T13:26:43.202Z,4.07
2022-09-30T13:29:41.549Z,2.50
2022-09-30T13:32:11.844Z,5.22
2022-09-30T13:34:56.269Z,2.63
2022-09-30T13:37:45.611Z,2.45
2022-09-30T13:40:28.860Z,3.47
2022-09-30T13:43:15.759Z,4.03
2022-09-30T13:45:47.086Z,3.22
2022-09-30T13:48:22.593Z,2.42
2022-09-30T13:50:52.954Z,4.00
2022-09-30T13:53:28.933Z,2.75
2022-09-30T13:56:00.052Z,3.13
2022-09-30T13:58:45.931Z,3.70
2022-09-30T14:01:26.357Z,2.80
2022-09-30T14:04:16.235Z,2.95
2022-09-30T14:06:54.504Z,3.85
2022-09-30T14:09:41.067Z,2.53
2022-09-30T14:12:35.832Z,3.17
2022-09-30T14:15:34.571Z,2.65
2022-09-30T14:18:25.099Z,3.80
2022-09-30T14:21:12.186Z,2.42
2022-09-30T14:23:40.400Z,2.58
2022-09-30T14:26:28.623Z,1.60
2022-09-30T14:29:05.221Z,1.70
2022-09-30T14:31:34.102Z,2.10
2022-09-30T14:34:03.101Z,2.15
2022-09-30T14:36:32.910Z,2.22
2022-09-30T14:39:02.449Z,2.55
2022-09-30T14:41:31.525Z,1.73
2022-09-30T14:44:07.998Z,1.70
2022-09-30T14:46:39.979Z,3.25
2022-09-30T14:49:10.868Z,1.10
2022-09-30T14:51:43.678Z,1.60
2022-09-30T14:54:19.920Z,1.30
2022-09-30T14:56:49.686Z,1.30
2022-09-30T14:59:20.317Z,1.88
2022-09-30T15:01:51.464Z,1.93
2022-09-30T15:04:24.898Z,1.23
2022-09-30T15:06:56.844Z,1.27
2022-09-30T15:09:29.339Z,1.70
2022-09-30T15:11:58.360Z,1.92
2022-09-30T15:14:26.794Z,1.65
2022-09-30T15:16:58.611Z,2.20
2022-09-30T15:19:30.141Z,1.83
2022-09-30T15:22:03.211Z,1.98
2022-09-30T15:24:33.431Z,1.50
2022-09-30T15:27:02.967Z,2.03
2022-09-30T15:29:31.313Z,1.17
2022-09-30T15:32:03.251Z,2.30
2022-09-30T15:34:32.100Z,1.55
2022-09-30T15:37:06.898Z,2.15
2022-09-30T15:39:55.796Z,2.15
2022-09-30T15:42:32.136Z,2.13
2022-09-30T15:45:00.481Z,1.63
2022-09-30T15:47:29.798Z,1.98
2022-09-30T15:49:58.178Z,2.00
2022-09-30T15:52:39.774Z,2.22
2022-09-30T15:58:37.989Z,1.50
2022-09-30T16:01:19.665Z,1.95
2022-09-30T16:03:50.743Z,2.30
2022-09-30T16:06:25.518Z,1.65
2022-09-30T16:09:01.568Z,2.17
2022-09-30T16:11:34.929Z,1.67
2022-09-30T16:14:07.028Z,2.30
2022-09-30T16:16:38.040Z,1.73
2022-09-30T16:19:07.588Z,2.35
2022-09-30T16:21:50.762Z,2.30
2022-09-30T16:24:44.827Z,2.08
2022-09-30T16:27:31.650Z,2.88
2022-09-30T16:30:01.986Z,2.17
2022-09-30T16:32:34.033Z,2.67
2022-09-30T16:35:02.257Z,2.00
2022-09-30T16:37:30.880Z,1.90
2022-09-30T16:40:10.708Z,1.95
2022-09-30T16:42:39.201Z,2.20
2022-09-30T16:45:12.261Z,2.10
2022-09-30T16:47:40.330Z,1.73
2022-09-30T16:50:19.205Z,3.03
2022-09-30T16:52:47.356Z,2.22
2022-09-30T16:57:50.520Z,2.13
2022-09-30T17:00:20.401Z,3.08
2022-09-30T17:02:49.970Z,3.17
2022-09-30T17:05:20.078Z,2.83
2022-09-30T17:07:51.015Z,3.13
2022-09-30T17:10:22.893Z,4.03
2022-09-30T17:12:51.448Z,4.70
2022-09-30T17:15:21.733Z,8.48
2022-09-30T17:17:51.424Z,5.07
2022-09-30T17:20:19.444Z,5.20
2022-09-30T17:22:47.663Z,3.35
2022-09-30T17:25:16.307Z,3.53
2022-09-30T17:27:44.906Z,3.35
2022-09-30T17:30:13.538Z,3.25
2022-09-30T17:32:44.561Z,3.85
2022-09-30T17:35:13.119Z,3.38
2022-09-30T17:37:43.946Z,2.67
2022-09-30T17:40:32.196Z,2.63
2022-09-30T17:43:11.777Z,2.55
2022-09-30T17:45:42.376Z,3.00
2022-09-30T17:48:13.182Z,2.80
2022-09-30T17:50:44.453Z,2.63
2022-09-30T17:53:14.240Z,2.78
2022-09-30T17:55:43.870Z,3.80
2022-09-30T17:58:12.605Z,2.60
2022-09-30T18:00:40.929Z,2.60
2022-09-30T18:03:10.030Z,3.00
2022-09-30T18:05:39.495Z,2.42
2022-09-30T18:08:07.741Z,2.28
2022-09-30T18:10:37.626Z,2.97
2022-09-30T18:13:06.086Z,2.65
2022-09-30T18:15:34.203Z,1.90
2022-09-30T18:18:02.302Z,2.47
2022-09-30T18:20:30.443Z,2.13
2022-09-30T18:23:00.030Z,2.58
2022-09-30T18:25:28.207Z,2.30
2022-09-30T18:27:59.436Z,3.67
2022-09-30T18:30:28.136Z,3.42
2022-09-30T18:32:57.191Z,2.35
2022-09-30T18:35:25.824Z,3.03
2022-09-30T18:37:55.298Z,2.80
2022-09-30T18:40:26.856Z,2.30
2022-09-30T18:47:56.838Z,3.05
2022-09-30T18:50:26.092Z,2.38
2022-09-30T18:52:54.827Z,3.35
2022-09-30T18:55:24.992Z,3.42
2022-09-30T18:57:55.192Z,2.45
2022-09-30T19:00:23.303Z,3.50
2022-09-30T19:02:53.334Z,4.20
2022-09-30T19:05:21.617Z,2.65
2022-09-30T19:07:49.920Z,2.80
2022-09-30T19:10:18.379Z,3.05
2022-09-30T19:12:47.989Z,3.83
2022-09-30T19:15:16.968Z,3.03
2022-09-30T19:17:45.801Z,2.70
2022-09-30T19:20:15.648Z,2.72
2022-09-30T19:22:43.712Z,2.85
2022-09-30T19:25:13.008Z,2.70
2022-09-30T19:27:43.157Z,2.50
2022-09-30T19:30:14.703Z,1.98
2022-09-30T19:32:42.772Z,2.53
2022-09-30T19:35:12.582Z,3.05
2022-09-30T19:37:47.660Z,3.35
2022-09-30T19:40:22.899Z,2.35
2022-09-30T19:42:51.563Z,2.53
2022-09-30T19:45:25.877Z,2.67
2022-09-30T19:47:54.576Z,3.10
2022-09-30T19:50:22.799Z,2.95
2022-09-30T19:52:57.434Z,2.95
2022-09-30T19:55:26.660Z,2.85
2022-09-30T19:57:54.972Z,2.47
2022-09-30T20:00:24.716Z,3.42
2022-09-30T20:02:52.916Z,2.83
2022-09-30T20:05:22.318Z,2.97
2022-09-30T20:07:51.389Z,2.55
2022-09-30T20:10:20.146Z,2.65
2022-09-30T20:12:48.339Z,3.10
2022-09-30T20:15:34.373Z,2.92
2022-09-30T20:18:05.233Z,2.72
2022-09-30T20:20:37.424Z,3.10
2022-09-30T20:23:05.865Z,2.97
2022-09-30T20:25:36.331Z,2.08
2022-09-30T20:28:05.441Z,3.55
2022-09-30T20:30:35.081Z,2.88
2022-09-30T20:33:05.683Z,3.00
2022-09-30T20:35:37.144Z,3.80
2022-09-30T20:38:05.383Z,3.70
2022-09-30T20:40:34.662Z,2.97
2022-09-30T20:43:04.157Z,3.50
2022-09-30T20:45:32.410Z,2.95
2022-09-30T20:48:00.492Z,3.80
2022-09-30T20:50:36.408Z,4.35
2022-09-30T20:53:07.001Z,3.78
2022-09-30T20:55:37.220Z,5.18
2022-09-30T20:58:06.531Z,4.40
2022-09-30T21:00:35.932Z,4.05
2022-09-30T21:03:04.678Z,3.45
2022-09-30T21:05:34.250Z,4.88
2022-09-30T21:08:03.420Z,4.53
2022-09-30T21:10:32.011Z,3.70
2022-09-30T21:13:01.391Z,4.43
2022-09-30T21:15:31.628Z,5.38
2022-09-30T21:17:59.827Z,4.35
2022-09-30T21:20:28.047Z,3.45
2022-09-30T21:22:57.707Z,4.25
2022-09-30T21:25:25.971Z,6.85
2022-09-30T21:27:54.270Z,4.13
2022-09-30T21:30:22.496Z,3.45
2022-09-30T21:32:50.731Z,7.70
2022-09-30T21:35:18.968Z,3.88
2022-09-30T21:37:49.741Z,4.05
2022-09-30T21:40:19.824Z,3.20
2022-09-30T21:42:48.011Z,3.28
2022-09-30T21:45:19.339Z,4.60
2022-09-30T21:47:47.592Z,4.72
2022-09-30T21:50:15.813Z,4.78
2022-09-30T21:52:44.092Z,4.13
2022-09-30T21:55:13.420Z,4.22
2022-09-30T21:57:43.478Z,4.38
2022-09-30T22:00:12.511Z,3.28
2022-09-30T22:02:40.742Z,3.33
2022-09-30T22:05:09.995Z,4.05
2022-09-30T22:07:38.165Z,4.53
2022-09-30T22:10:08.472Z,3.47
2022-09-30T22:12:36.587Z,2.97
2022-09-30T22:15:06.899Z,2.67
2022-09-30T22:17:34.988Z,3.88
2022-09-30T22:20:03.436Z,3.97
2022-09-30T22:22:31.530Z,3.03
2022-09-30T22:24:59.659Z,3.33
2022-09-30T22:27:28.324Z,4.47
2022-09-30T22:29:56.772Z,3.47
2022-09-30T22:32:26.377Z,3.67
2022-09-30T22:35:12.184Z,3.95
2022-09-30T22:38:03.317Z,3.58
2022-09-30T22:40:31.753Z,3.60
2022-09-30T22:42:59.880Z,4.97
2022-09-30T22:45:28.183Z,3.30
2022-09-30T22:47:58.677Z,3.72
2022-09-30T22:50:28.993Z,3.38
2022-09-30T22:52:58.136Z,3.80
2022-09-30T22:55:26.393Z,3.70
2022-09-30T22:57:54.401Z,3.95
2022-09-30T23:00:22.578Z,2.95
2022-09-30T23:02:53.058Z,3.80
2022-09-30T23:05:22.495Z,2.40
2022-09-30T23:07:50.631Z,3.25
2022-09-30T23:10:18.678Z,3.92
2022-09-30T23:12:47.339Z,3.45
2022-09-30T23:15:15.523Z,3.85
2022-09-30T23:17:43.688Z,4.32
2022-09-30T23:20:11.975Z,4.32
2022-09-30T23:22:41.428Z,3.65
2022-09-30T23:25:10.537Z,3.10
2022-09-30T23:27:38.611Z,3.42
2022-09-30T23:30:07.899Z,2.88
2022-09-30T23:32:35.954Z,3.80
2022-09-30T23:35:04.315Z,3.45
2022-09-30T23:37:32.424Z,4.05
2022-09-30T23:40:02.575Z,3.33
2022-09-30T23:42:32.377Z,3.83
2022-09-30T23:45:00.542Z,3.25
2022-09-30T23:47:28.810Z,3.67
2022-09-30T23:49:58.418Z,3.13
2022-09-30T23:52:26.517Z,2.58
2022-09-30T23:54:55.143Z,3.03
2022-09-30T23:57:24.736Z,2.53
2022-09-30T23:59:52.817Z,2.70
